CDT,Max TemperatureF,Mean TemperatureF,Min TemperatureF,Max Dew PointF,MeanDew PointF,Min DewpointF,Max Humidity, Mean Humidity, Min Humidity, Max Sea Level PressureIn, Mean Sea Level PressureIn, Min Sea Level PressureIn, Max VisibilityMiles, Mean VisibilityMiles, Min VisibilityMiles, Max Wind SpeedMPH, Mean Wind SpeedMPH, Max Gust SpeedMPH,PrecipitationIn, CloudCover, Events, WindDirDegrees
2013-4-1,30,21,12,21,15,9,93,76,60,30.34,30.29,30.23,10,10,10,13,9,,0.00,0,,304
2013-4-2,32,22,12,21,17,12,100,80,55,30.35,30.32,30.26,10,10,10,9,3,,0.00,0,,76
2013-4-3,44,30,17,39,29,16,100,89,76,30.31,30.08,29.85,10,10,7,20,10,25,0.00,1,,151
2013-4-4,35,30,24,34,29,25,100,89,75,30.26,30.19,30.05,10,10,10,20,11,24,0.00,3,,358
2013-4-5,33,27,21,34,28,19,100,97,86,30.26,30.02,29.70,10,10,9,25,12,30,0.00,3,,97
2013-4-6,37,35,33,37,35,34,100,100,93,29.86,29.71,29.63,10,6,2,22,13,23,0.00,7,,3
2013-4-7,37,34,32,36,33,30,100,96,87,29.89,29.83,29.75,10,7,1,14,7,,0.07,8,,62
2013-4-8,33,28,23,34,30,16,100,96,74,30.24,29.94,29.75,10,6,0,29,16,34,0.00,8,,16
2013-4-9,30,24,17,23,16,10,80,73,64,30.33,30.28,30.22,10,10,10,30,23,37,0.00,3,,11
2013-4-10,33,30,26,30,24,21,93,79,65,30.33,30.16,30.00,10,10,10,25,17,21,0.00,3,,10
2013-4-11,32,31,30,32,31,28,100,99,87,29.99,29.85,29.80,10,4,0,21,15,26,0.01,7,,33
2013-4-12,32,30,28,32,30,28,100,98,87,29.93,29.86,29.82,10,6,1,16,10,,0.00,8,,357
2013-4-13,32,26,19,32,28,19,100,94,80,29.92,29.88,29.84,10,9,0,14,8,,0.00,6,,20
2013-4-14,32,31,30,32,31,28,100,97,87,29.86,29.61,29.42,10,3,0,31,20,39,0.00,7,,71
2013-4-15,35,32,30,34,32,28,100,94,81,30.04,29.66,29.39,10,6,0,24,18,30,0.00,7,,315
2013-4-16,35,29,23,32,29,23,100,93,75,30.37,30.22,30.03,10,10,3,17,10,,0.00,5,,322
2013-4-17,32,31,30,32,32,30,100,100,100,30.37,30.25,30.13,10,4,1,20,9,20,0.02,7,,5
2013-4-18,35,32,30,32,29,21,100,90,69,30.12,29.96,29.87,10,8,2,29,18,36,0.00,5,,345
2013-4-19,33,30,24,23,21,18,80,68,55,30.10,29.94,29.82,10,10,8,23,18,29,0.00,0,,336
2013-4-20,33,22,12,30,20,10,93,77,51,30.22,30.17,30.10,10,10,10,15,9,,0.00,3,,177
2013-4-21,39,36,30,37,33,28,100,94,75,30.21,30.05,29.95,10,10,3,21,13,26,0.01,6,,251
2013-4-22,33,30,28,30,28,25,100,89,75,30.36,30.29,30.20,10,10,4,17,10,21,0.00,5,,351
2013-4-23,39,31,23,32,25,19,93,80,60,30.35,30.19,30.03,10,10,10,14,10,16,0.00,0,,266
2013-4-24,42,35,28,36,29,21,100,83,53,30.08,29.96,29.91,10,10,0,30,12,40,0.00,2,,267
2013-4-25,46,36,26,37,31,23,100,83,65,30.12,30.03,29.90,10,10,10,20,11,21,0.00,1,,177
2013-4-26,68,50,33,52,40,34,100,75,37,30.10,30.01,29.87,10,10,5,13,8,,0.00,0,,218
2013-4-27,75,57,39,48,41,36,87,58,34,30.10,29.91,29.74,10,10,10,25,15,32,0.00,0,,200
2013-4-28,60,51,42,46,42,34,93,68,45,29.90,29.75,29.65,10,10,9,21,13,25,0.00,0,,277
2013-4-29,69,51,33,46,36,32,93,60,27,29.90,29.69,29.35,10,10,10,22,10,30,0.00,0,,130
2013-4-30,57,47,37,50,38,27,100,65,44,30.11,29.67,29.31,10,10,10,31,18,43,0.00,1,,296